Time;durP1;ratioP1;P1;durP2;ratioP2;P2;SDS_P1;SDS_P2;PMS_P1;PMS_P2;Temp;Humidity;BMP_temperature;BMP_pressure;BME280_temperature;BME280_humidity;BME280_pressure;Samples;Min_cycle;Max_cycle;Signal;HPM_P1;HPM_P2
2022/11/29 00:01:34;;;;;;;28.85;20.55;;;5.90;94.90;;;;;;5035845;28;20021;-56
2022/11/29 00:04:01;;;;;;;29.20;21.25;;;5.90;94.90;;;;;;5036025;28;20017;-56
2022/11/29 00:06:30;;;;;;;33.50;22.85;;;5.90;94.90;;;;;;5034680;28;20037;-56
2022/11/29 00:09:00;;;;;;;37.60;23.30;;;5.80;94.90;;;;;;5016149;28;20091;-57
2022/11/29 00:14:18;;;;;;;29.92;21.13;;;5.80;94.90;;;;;;5024468;28;20055;-54
2022/11/29 00:16:44;;;;;;;34.72;22.13;;;5.90;95.00;;;;;;5024012;28;20037;-57
2022/11/29 00:19:12;;;;;;;32.15;22.02;;;5.90;94.90;;;;;;5015480;28;20018;-58
2022/11/29 00:21:39;;;;;;;31.63;22.30;;;5.90;94.90;;;;;;5015872;28;20352;-57
2022/11/29 00:24:06;;;;;;;30.20;20.90;;;5.90;95.00;;;;;;5015930;28;20364;-57
2022/11/29 00:26:35;;;;;;;32.95;22.85;;;5.90;95.00;;;;;;5015568;28;20022;-53
2022/11/29 00:29:03;;;;;;;32.75;23.17;;;5.90;95.00;;;;;;5023608;28;20466;-56
2022/11/29 00:31:32;;;;;;;35.05;22.17;;;5.90;95.00;;;;;;5035369;28;20033;-58
2022/11/29 00:34:01;;;;;;;36.08;22.58;;;5.90;95.10;;;;;;5035664;28;20469;-57
2022/11/29 00:36:32;;;;;;;38.08;23.33;;;5.90;95.00;;;;;;5028769;28;20034;-57
2022/11/29 00:38:59;;;;;;;33.08;22.42;;;5.90;95.00;;;;;;4998067;28;20045;-55
2022/11/29 00:41:25;;;;;;;34.67;23.08;;;5.90;95.00;;;;;;5015314;28;20029;-56
2022/11/29 00:43:55;;;;;;;35.85;23.77;;;5.90;95.00;;;;;;5007927;28;20026;-55
2022/11/29 00:46:22;;;;;;;35.38;24.00;;;5.90;95.00;;;;;;5017150;28;20038;-54
2022/11/29 00:48:49;;;;;;;34.53;21.98;;;5.90;95.00;;;;;;5015469;28;20047;-54
2022/11/29 00:51:16;;;;;;;35.17;21.30;;;5.90;95.00;;;;;;5015032;28;20042;-54
2022/11/29 00:53:43;;;;;;;36.63;23.38;;;5.90;95.00;;;;;;5015358;28;20044;-54
2022/11/29 00:56:10;;;;;;;37.40;23.50;;;5.90;95.00;;;;;;4997749;28;20058;-51
2022/11/29 00:58:37;;;;;;;37.47;23.63;;;5.90;95.00;;;;;;5022007;28;20083;-55
2022/11/29 01:01:04;;;;;;;36.80;22.25;;;5.90;95.00;;;;;;5042179;28;20499;-50
2022/11/29 01:03:34;;;;;;;33.83;24.70;;;5.90;95.00;;;;;;5015127;28;20084;-51
2022/11/29 01:06:03;;;;;;;38.60;23.30;;;5.90;95.00;;;;;;5014578;28;20077;-53
2022/11/29 01:08:30;;;;;;;40.78;24.58;;;5.90;95.00;;;;;;5014001;28;20088;-52
2022/11/29 01:11:13;;;;;;;38.50;23.13;;;5.90;95.00;;;;;;5014928;28;20823;-51
2022/11/29 01:13:40;;;;;;;39.78;24.23;;;5.90;94.90;;;;;;5017366;28;20051;-51
2022/11/29 01:16:07;;;;;;;36.10;24.00;;;5.90;95.00;;;;;;5033876;28;20048;-54
2022/11/29 01:18:34;;;;;;;38.42;24.80;;;5.90;95.00;;;;;;5020652;28;20029;-53
2022/11/29 01:21:08;;;;;;;36.90;23.58;;;5.90;95.10;;;;;;5027159;28;20458;-48
2022/11/29 01:23:36;;;;;;;44.35;23.48;;;5.90;95.10;;;;;;5013238;28;20026;-54
2022/11/29 01:26:09;;;;;;;41.08;22.92;;;5.90;95.10;;;;;;5014527;28;20060;-51
2022/11/29 01:28:37;;;;;;;43.17;24.35;;;5.90;95.10;;;;;;5015033;28;20092;-52
2022/11/29 01:31:13;;;;;;;40.53;23.70;;;5.90;95.00;;;;;;5034086;28;20049;-50
2022/11/29 01:33:41;;;;;;;43.90;26.50;;;5.90;95.10;;;;;;5015827;28;20029;-53
2022/11/29 01:36:08;;;;;;;39.97;23.35;;;5.90;95.10;;;;;;5031470;28;20136;-59
2022/11/29 01:38:35;;;;;;;47.30;24.23;;;5.90;95.10;;;;;;5033872;28;20045;-59
2022/11/29 01:41:13;;;;;;;38.42;24.27;;;5.90;95.10;;;;;;5012492;28;20022;-59
2022/11/29 01:44:15;;;;;;;45.70;26.10;;;5.90;95.10;;;;;;5020604;28;20026;-58
2022/11/29 01:46:44;;;;;;;37.72;24.45;;;5.90;95.10;;;;;;5024189;28;20030;-58
2022/11/29 01:49:18;;;;;;;54.40;26.03;;;5.90;95.10;;;;;;5014531;28;20025;-59
2022/11/29 01:51:51;;;;;;;39.45;23.55;;;5.90;95.10;;;;;;5018073;28;20442;-58
2022/11/29 01:54:19;;;;;;;39.13;23.63;;;5.90;95.10;;;;;;5032531;28;20033;-60
2022/11/29 01:56:49;;;;;;;41.92;24.08;;;5.90;95.10;;;;;;5023845;28;20049;-59
2022/11/29 01:59:20;;;;;;;41.80;23.80;;;5.90;95.10;;;;;;5024426;28;20431;-59
2022/11/29 02:01:47;;;;;;;43.95;24.83;;;5.90;95.10;;;;;;5033705;28;20030;-59
2022/11/29 02:04:16;;;;;;;35.85;23.13;;;5.90;95.10;;;;;;5015439;28;20068;-59
2022/11/29 02:06:43;;;;;;;40.58;24.25;;;5.90;95.10;;;;;;5026662;28;20030;-58
2022/11/29 02:09:22;;;;;;;39.45;24.73;;;5.90;95.10;;;;;;5013940;28;20562;-59
2022/11/29 02:12:21;;;;;;;38.03;24.08;;;5.90;95.10;;;;;;5013903;28;20452;-59
2022/11/29 02:15:13;;;;;;;37.20;23.45;;;5.90;95.00;;;;;;5029712;28;20477;-59
2022/11/29 02:18:04;;;;;;;42.20;24.85;;;5.90;95.10;;;;;;5014549;28;20030;-58
2022/11/29 02:20:54;;;;;;;45.75;25.42;;;5.90;95.10;;;;;;5011563;28;20029;-58
2022/11/29 02:23:47;;;;;;;45.92;24.75;;;5.90;95.10;;;;;;5027822;28;20037;-58
2022/11/29 02:26:43;;;;;;;36.28;23.77;;;5.90;95.10;;;;;;5032708;28;20084;-58
2022/11/29 02:29:34;;;;;;;42.42;24.38;;;5.90;95.10;;;;;;5024809;28;20037;-58
2022/11/29 02:32:17;;;;;;;37.63;24.42;;;5.90;95.10;;;;;;5033303;28;20061;-59
2022/11/29 02:35:02;;;;;;;44.90;25.30;;;5.90;95.10;;;;;;5016454;28;20455;-58
2022/11/29 02:37:55;;;;;;;38.25;24.35;;;5.90;95.10;;;;;;5013518;28;20099;-58
2022/11/29 02:40:45;;;;;;;39.78;24.08;;;5.90;95.10;;;;;;5013091;28;20700;-58
2022/11/29 02:43:38;;;;;;;39.30;25.10;;;5.90;95.10;;;;;;5011010;28;20052;-58
2022/11/29 02:46:28;;;;;;;44.00;25.80;;;5.90;95.10;;;;;;5013127;28;20034;-58
2022/11/29 02:49:31;;;;;;;37.40;25.10;;;5.90;95.10;;;;;;5013078;28;20034;-56
2022/11/29 02:52:24;;;;;;;41.70;24.27;;;5.90;95.10;;;;;;5012417;28;20025;-58
2022/11/29 02:55:17;;;;;;;38.83;23.63;;;5.80;95.10;;;;;;5022149;28;20100;-59
2022/11/29 02:58:07;;;;;;;44.15;25.25;;;5.90;95.10;;;;;;5019628;28;20497;-59
2022/11/29 03:00:40;;;;;;;40.67;25.30;;;5.80;95.10;;;;;;5033265;28;20081;-59
2022/11/29 03:03:37;;;;;;;39.33;23.98;;;5.80;95.10;;;;;;5011151;28;20026;-59
2022/11/29 03:06:40;;;;;;;41.85;25.10;;;5.90;95.10;;;;;;5016958;28;20032;-59
2022/11/29 03:09:41;;;;;;;43.75;25.33;;;5.80;95.10;;;;;;5033237;28;20320;-59
2022/11/29 03:12:46;;;;;;;40.40;24.58;;;5.90;95.10;;;;;;5032875;28;20057;-60
2022/11/29 03:15:37;;;;;;;40.63;25.17;;;5.90;95.10;;;;;;5004885;28;20038;-60
2022/11/29 03:18:30;;;;;;;42.97;25.10;;;5.90;95.10;;;;;;5001222;28;20038;-60
2022/11/29 03:21:30;;;;;;;42.22;25.08;;;5.90;95.10;;;;;;4991415;28;20106;-59
2022/11/29 03:24:04;;;;;;;40.72;23.88;;;5.80;95.10;;;;;;4990628;28;20042;-59
2022/11/29 03:26:41;;;;;;;43.72;23.70;;;5.80;95.10;;;;;;4975213;28;20026;-59
2022/11/29 03:29:28;;;;;;;44.40;24.77;;;5.90;95.10;;;;;;4959495;28;20392;-57
2022/11/29 03:32:27;;;;;;;37.85;22.90;;;5.80;95.10;;;;;;4991461;28;20105;-59
2022/11/29 03:35:04;;;;;;;43.47;25.25;;;5.80;95.20;;;;;;4977083;28;20068;-59
2022/11/29 03:38:08;;;;;;;41.95;25.67;;;5.80;95.20;;;;;;4994257;28;20053;-59
2022/11/29 03:41:01;;;;;;;38.75;22.48;;;5.90;95.20;;;;;;4995037;28;20452;-59
2022/11/29 03:43:48;;;;;;;35.58;21.15;;;5.90;95.20;;;;;;4995674;28;20356;-59
2022/11/29 03:46:59;;;;;;;33.75;21.48;;;5.90;95.20;;;;;;4962090;28;20042;-60
2022/11/29 03:49:51;;;;;;;33.80;20.35;;;5.90;95.10;;;;;;4968981;28;20418;-59
2022/11/29 03:52:46;;;;;;;35.55;20.98;;;5.90;95.10;;;;;;5016154;28;20321;-60
2022/11/29 03:55:21;;;;;;;31.88;19.40;;;5.90;95.10;;;;;;5016017;28;20077;-61
2022/11/29 03:58:25;;;;;;;30.73;19.02;;;5.90;95.10;;;;;;5020582;28;20024;-60
2022/11/29 04:01:28;;;;;;;30.02;19.00;;;5.90;95.10;;;;;;5034159;28;20033;-60
2022/11/29 04:04:15;;;;;;;29.52;17.95;;;5.90;95.10;;;;;;5023612;28;20395;-59
2022/11/29 04:07:11;;;;;;;26.50;18.15;;;5.90;95.10;;;;;;5016224;28;20356;-59
2022/11/29 04:10:10;;;;;;;29.83;18.92;;;5.90;95.10;;;;;;5015887;28;20042;-59
2022/11/29 04:13:13;;;;;;;27.90;18.65;;;5.90;95.00;;;;;;5014243;28;20099;-59
2022/11/29 04:16:06;;;;;;;26.13;17.80;;;5.90;95.10;;;;;;5015777;28;20085;-60
2022/11/29 04:18:49;;;;;;;26.35;17.50;;;5.90;95.10;;;;;;5015536;28;20092;-60
2022/11/29 04:21:52;;;;;;;35.28;19.98;;;5.90;95.10;;;;;;5015625;28;20026;-59
2022/11/29 04:24:39;;;;;;;31.33;19.75;;;5.90;95.10;;;;;;5015952;28;20022;-60
2022/11/29 04:27:42;;;;;;;28.33;17.98;;;5.90;95.10;;;;;;5025328;28;20061;-60
2022/11/29 04:30:16;;;;;;;29.40;19.83;;;5.90;95.00;;;;;;5013863;28;20375;-60
2022/11/29 04:33:12;;;;;;;27.80;18.85;;;5.90;95.10;;;;;;5015453;28;20534;-59
2022/11/29 04:35:53;;;;;;;27.23;18.15;;;5.90;95.10;;;;;;5015183;28;20136;-59
2022/11/29 04:38:52;;;;;;;32.00;20.73;;;5.90;95.10;;;;;;4998150;28;20440;-60
2022/11/29 04:41:55;;;;;;;29.15;18.27;;;5.90;95.10;;;;;;5015192;28;20502;-60
2022/11/29 04:44:58;;;;;;;30.23;18.52;;;5.90;95.00;;;;;;5015006;28;20037;-59
2022/11/29 04:47:42;;;;;;;27.70;18.70;;;5.90;95.00;;;;;;5015138;28;20440;-59
2022/11/29 04:50:25;;;;;;;33.13;19.67;;;5.90;95.20;;;;;;5015446;28;20346;-60
2022/11/29 04:53:31;;;;;;;30.13;19.48;;;5.90;95.10;;;;;;5015021;28;20042;-59
2022/11/29 04:56:27;;;;;;;27.80;18.33;;;5.90;95.10;;;;;;5013961;28;20044;-60
2022/11/29 04:59:16;;;;;;;31.05;19.05;;;5.90;95.10;;;;;;5042765;28;20017;-59
2022/11/29 05:02:19;;;;;;;29.65;17.88;;;5.90;95.10;;;;;;5016314;28;20100;-59
2022/11/29 05:05:13;;;;;;;25.75;18.38;;;5.90;95.10;;;;;;5023147;28;20087;-59
2022/11/29 05:08:16;;;;;;;24.15;17.33;;;5.90;95.10;;;;;;5014692;28;20038;-59
2022/11/29 05:11:12;;;;;;;27.55;17.25;;;5.90;95.10;;;;;;5015025;28;20468;-58
2022/11/29 05:14:29;;;;;;;26.23;20.17;;;5.90;95.10;;;;;;5031289;28;20068;-55
2022/11/29 05:17:15;;;;;;;27.13;20.30;;;5.90;95.10;;;;;;5001028;28;20045;-56
2022/11/29 05:20:26;;;;;;;30.90;18.13;;;5.90;95.10;;;;;;5034360;28;20025;-57
2022/11/29 05:23:22;;;;;;;28.30;18.60;;;5.90;95.10;;;;;;5010715;28;20455;-55
2022/11/29 05:26:15;;;;;;;27.40;18.38;;;5.90;95.10;;;;;;5014355;28;20049;-56
2022/11/29 05:29:02;;;;;;;30.85;18.95;;;5.90;95.10;;;;;;5029200;28;20406;-56
2022/11/29 05:31:55;;;;;;;30.38;19.88;;;5.90;95.20;;;;;;5033845;28;20029;-54
2022/11/29 05:34:36;;;;;;;29.50;20.10;;;5.90;95.10;;;;;;5014448;28;20022;-54
2022/11/29 05:37:17;;;;;;;30.92;20.23;;;5.90;95.20;;;;;;5013274;28;20133;-55
2022/11/29 05:40:14;;;;;;;33.72;22.27;;;5.90;95.10;;;;;;5014360;28;20094;-51
2022/11/29 05:43:02;;;;;;;34.38;20.17;;;5.90;95.20;;;;;;5023658;28;20108;-52
2022/11/29 05:45:58;;;;;;;33.08;20.05;;;5.90;95.10;;;;;;5014077;28;20351;-49
2022/11/29 05:48:28;;;;;;;30.50;20.30;;;5.90;95.10;;;;;;4996698;28;20025;-52
2022/11/29 05:51:28;;;;;;;30.83;19.85;;;5.90;95.10;;;;;;5013970;28;20026;-53
2022/11/29 05:54:07;;;;;;;;;;;5.90;95.10;;;;;;5014732;28;20057;-53
2022/11/29 05:57:07;;;;;;;31.38;18.67;;;5.90;95.20;;;;;;5014865;28;19913;-52
2022/11/29 05:59:37;;;;;;;31.92;20.02;;;5.90;95.10;;;;;;5014006;28;20018;-50
2022/11/29 06:02:40;;;;;;;31.75;20.60;;;5.90;95.20;;;;;;5024868;28;20029;-55
2022/11/29 06:05:15;;;;;;;32.30;19.35;;;5.90;95.20;;;;;;5021010;28;20097;-55
2022/11/29 06:08:01;;;;;;;28.38;18.83;;;5.90;95.10;;;;;;5033465;28;20048;-52
2022/11/29 06:10:35;;;;;;;31.15;19.08;;;5.90;95.10;;;;;;5019716;28;20038;-56
2022/11/29 06:13:20;;;;;;;35.22;20.75;;;5.90;95.20;;;;;;5008313;28;20076;-58
2022/11/29 06:16:08;;;;;;;35.03;20.50;;;5.90;95.10;;;;;;5033432;28;20026;-58
2022/11/29 06:19:11;;;;;;;31.35;20.08;;;5.90;95.10;;;;;;5019008;28;20548;-57
2022/11/29 06:22:20;;;;;;;31.45;19.83;;;5.90;95.10;;;;;;5013898;28;20030;-55
2022/11/29 06:25:15;;;;;;;35.35;21.52;;;5.90;95.10;;;;;;4989323;28;20037;-56
2022/11/29 06:27:44;;;;;;;29.83;18.70;;;5.90;95.10;;;;;;5026590;28;20047;-57
2022/11/29 06:30:47;;;;;;;35.65;20.38;;;5.90;95.10;;;;;;5030485;28;20026;-57
2022/11/29 06:33:45;;;;;;;33.78;19.95;;;5.90;95.10;;;;;;5012658;28;20403;-57
2022/11/29 06:36:27;;;;;;;36.17;19.58;;;5.90;95.10;;;;;;5021787;28;20053;-58
2022/11/29 06:38:54;;;;;;;33.28;20.75;;;5.90;95.20;;;;;;5015131;28;20101;-58
2022/11/29 06:41:25;;;;;;;32.22;19.88;;;5.90;95.10;;;;;;5017408;28;20026;-58
2022/11/29 06:43:56;;;;;;;38.08;19.70;;;5.90;95.10;;;;;;5018391;28;20029;-58
2022/11/29 06:46:59;;;;;;;34.90;20.55;;;5.90;95.10;;;;;;5025170;28;20037;-59
2022/11/29 06:49:53;;;;;;;37.60;20.15;;;5.90;95.20;;;;;;5013612;28;20121;-60
2022/11/29 06:52:34;;;;;;;36.17;21.50;;;5.90;95.10;;;;;;5024809;28;20075;-60
2022/11/29 06:55:22;;;;;;;32.67;19.02;;;5.90;95.20;;;;;;5032953;28;20021;-60
2022/11/29 06:58:12;;;;;;;34.58;19.52;;;5.90;95.20;;;;;;5031934;28;20398;-60
2022/11/29 07:01:14;;;;;;;38.33;22.10;;;5.90;95.20;;;;;;5030538;28;20022;-59
2022/11/29 07:04:14;;;;;;;28.92;19.20;;;6.00;95.20;;;;;;5032285;28;20635;-60
2022/11/29 07:06:41;;;;;;;34.10;20.58;;;6.00;95.20;;;;;;5027096;28;20026;-60
2022/11/29 07:09:17;;;;;;;31.38;20.17;;;6.00;95.20;;;;;;5015155;28;20419;-60
2022/11/29 07:11:46;;;;;;;33.20;20.08;;;6.00;95.20;;;;;;5017349;28;20034;-60
2022/11/29 07:14:13;;;;;;;26.67;19.38;;;6.00;95.20;;;;;;5029120;28;20481;-59
2022/11/29 07:17:32;;;;;;;29.60;17.88;;;5.90;95.10;;;;;;5035814;28;20060;-60
2022/11/29 07:20:03;;;;;;;28.55;17.33;;;6.00;95.20;;;;;;4954175;28;20039;-60
2022/11/29 07:23:10;;;;;;;32.45;18.63;;;6.00;95.20;;;;;;4956299;28;20095;-60
2022/11/29 07:25:52;;;;;;;28.40;17.25;;;6.00;95.20;;;;;;4938210;29;20455;-59
2022/11/29 07:28:48;;;;;;;26.20;16.02;;;6.00;95.20;;;;;;4955035;28;20020;-60
2022/11/29 07:31:51;;;;;;;24.92;16.85;;;6.00;95.20;;;;;;4948435;28;20035;-59
2022/11/29 07:34:50;;;;;;;24.50;16.80;;;6.00;95.20;;;;;;4930024;29;20032;-60
2022/11/29 07:37:53;;;;;;;20.80;15.10;;;5.90;95.10;;;;;;4937076;29;20078;-61
2022/11/29 07:40:43;;;;;;;20.23;14.63;;;5.90;95.10;;;;;;4937222;29;20149;-60
2022/11/29 07:43:26;;;;;;;;;;;5.90;95.10;;;;;;4947470;28;20437;-60
2022/11/29 07:45:55;;;;;;;21.23;13.73;;;5.90;95.10;;;;;;4955988;29;19906;-60
2022/11/29 07:48:23;;;;;;;19.80;13.70;;;5.90;95.10;;;;;;4946301;28;20473;-61
2022/11/29 07:50:49;;;;;;;22.55;14.00;;;5.80;95.00;;;;;;4936887;29;20135;-61
2022/11/29 07:53:19;;;;;;;20.70;14.32;;;5.80;95.10;;;;;;4943313;29;20118;-60
2022/11/29 07:55:45;;;;;;;17.75;12.52;;;5.80;95.10;;;;;;4991824;28;20069;-60
2022/11/29 07:58:14;;;;;;;16.35;12.93;;;5.80;95.00;;;;;;5036080;28;20072;-60
2022/11/29 08:00:42;;;;;;;18.02;13.50;;;5.80;95.00;;;;;;5031237;28;20037;-61
2022/11/29 08:03:09;;;;;;;19.45;13.65;;;5.80;95.00;;;;;;5035965;28;20103;-60
2022/11/29 08:05:37;;;;;;;18.52;13.05;;;5.80;95.00;;;;;;5035814;28;20029;-60
2022/11/29 08:08:04;;;;;;;16.40;12.15;;;5.80;95.10;;;;;;5034449;28;20029;-60
2022/11/29 08:10:33;;;;;;;17.90;13.52;;;5.80;95.00;;;;;;5016329;28;20096;-59
2022/11/29 08:12:59;;;;;;;17.75;12.80;;;5.80;95.00;;;;;;5019260;28;20026;-59
2022/11/29 08:15:27;;;;;;;16.55;12.23;;;5.80;95.00;;;;;;5035658;28;20109;-59
2022/11/29 08:17:58;;;;;;;16.90;13.07;;;5.80;95.00;;;;;;5032234;28;20370;-59
2022/11/29 08:20:25;;;;;;;16.40;11.80;;;5.80;95.00;;;;;;5014045;28;20018;-60
2022/11/29 08:23:02;;;;;;;17.95;13.43;;;5.70;95.00;;;;;;5015896;28;20598;-60
2022/11/29 08:25:28;;;;;;;16.48;12.63;;;5.80;95.00;;;;;;5015510;28;20474;-59
2022/11/29 08:27:55;;;;;;;15.23;12.90;;;5.70;95.00;;;;;;5020592;28;20036;-60
2022/11/29 08:30:22;;;;;;;15.27;11.82;;;5.70;94.90;;;;;;5036234;28;20021;-61
2022/11/29 08:32:52;;;;;;;15.82;11.80;;;5.70;94.90;;;;;;5030711;28;20040;-60
2022/11/29 08:35:22;;;;;;;16.55;12.20;;;5.70;94.90;;;;;;4998158;28;20054;-60
2022/11/29 08:37:49;;;;;;;;;;;5.70;95.00;;;;;;5015845;28;20093;-60
2022/11/29 08:40:16;;;;;;;16.15;11.45;;;5.70;94.90;;;;;;5015349;28;19917;-60
2022/11/29 08:42:43;;;;;;;13.00;10.70;;;5.80;95.00;;;;;;4998307;28;20034;-60
2022/11/29 08:45:10;;;;;;;14.60;10.88;;;5.80;94.90;;;;;;5033967;28;20347;-60
2022/11/29 08:47:37;;;;;;;15.05;11.15;;;5.80;94.90;;;;;;5034878;28;20037;-60
2022/11/29 08:50:21;;;;;;;15.88;11.93;;;5.80;94.90;;;;;;5018787;28;20034;-60
2022/11/29 08:55:39;;;;;;;16.58;12.07;;;5.70;94.80;;;;;;5014771;28;20410;-60
2022/11/29 08:58:15;;;;;;;16.83;11.68;;;5.70;94.80;;;;;;5022039;28;20049;-60
2022/11/29 09:00:44;;;;;;;16.42;12.48;;;5.70;94.90;;;;;;5035008;28;20029;-61
2022/11/29 09:05:58;;;;;;;17.88;11.70;;;5.70;94.80;;;;;;5015154;28;20037;-60
2022/11/29 09:08:24;;;;;;;16.88;12.30;;;5.80;94.90;;;;;;5019582;28;20419;-61
2022/11/29 09:10:52;;;;;;;14.05;11.13;;;5.70;94.80;;;;;;5014863;28;20037;-61
2022/11/29 09:13:19;;;;;;;16.25;12.07;;;5.70;94.80;;;;;;5029422;28;20029;-60
2022/11/29 09:15:46;;;;;;;17.60;12.27;;;5.70;94.90;;;;;;5026683;28;20133;-60
2022/11/29 09:18:16;;;;;;;16.33;11.93;;;5.70;94.80;;;;;;5017473;28;20458;-60
2022/11/29 09:20:43;;;;;;;17.38;12.43;;;5.70;94.80;;;;;;5031373;28;20061;-60
2022/11/29 09:23:12;;;;;;;16.48;11.80;;;5.80;94.90;;;;;;5014952;28;20036;-60
2022/11/29 09:25:39;;;;;;;17.92;12.80;;;5.70;94.80;;;;;;5014674;28;20432;-61
2022/11/29 09:28:06;;;;;;;17.75;11.40;;;5.70;94.80;;;;;;5007107;28;20124;-60
2022/11/29 09:30:36;;;;;;;17.58;12.05;;;5.80;94.80;;;;;;5020850;28;20030;-60
2022/11/29 09:33:03;;;;;;;16.13;11.30;;;5.80;94.90;;;;;;5014285;28;20022;-61
2022/11/29 09:35:31;;;;;;;15.35;11.82;;;5.80;94.80;;;;;;5013322;28;20054;-60
2022/11/29 09:37:58;;;;;;;14.40;10.75;;;5.80;94.70;;;;;;5021914;28;20057;-61
2022/11/29 09:40:43;;;;;;;15.80;11.15;;;5.80;94.80;;;;;;5030039;28;20030;-61
2022/11/29 09:43:48;;;;;;;15.07;11.85;;;5.80;94.80;;;;;;5028079;28;20366;-60
2022/11/29 09:46:42;;;;;;;16.05;10.10;;;5.90;94.80;;;;;;5016012;28;20040;-59
2022/11/29 09:49:45;;;;;;;16.52;11.63;;;5.80;94.70;;;;;;5032005;28;20330;-60
2022/11/29 09:52:44;;;;;;;14.85;11.95;;;5.90;94.80;;;;;;5014259;28;20837;-58
2022/11/29 09:55:37;;;;;;;17.42;11.50;;;5.90;94.80;;;;;;5024254;28;20029;-59
2022/11/29 09:58:13;;;;;;;16.65;12.65;;;5.90;94.70;;;;;;5018574;28;20389;-59
2022/11/29 10:00:52;;;;;;;15.68;12.38;;;5.90;94.70;;;;;;5030597;28;20079;-57
2022/11/29 10:03:38;;;;;;;17.55;12.25;;;5.80;94.70;;;;;;5033805;28;20030;-58
2022/11/29 10:06:26;;;;;;;14.55;11.25;;;5.90;94.60;;;;;;5033787;28;20056;-56
2022/11/29 10:09:13;;;;;;;17.58;12.60;;;5.90;94.70;;;;;;5013722;28;20037;-57
2022/11/29 10:11:54;;;;;;;17.27;12.57;;;5.90;94.60;;;;;;5035691;28;20522;-56
2022/11/29 10:14:49;;;;;;;17.23;12.80;;;5.90;94.70;;;;;;5033583;28;20077;-57
2022/11/29 10:17:39;;;;;;;16.77;13.45;;;5.90;94.60;;;;;;5022535;28;20025;-57
2022/11/29 10:20:23;;;;;;;;;;;6.00;94.60;;;;;;5014309;28;20021;-54
2022/11/29 10:22:55;;;;;;;18.45;13.40;;;5.90;94.60;;;;;;5015752;28;19944;-53
2022/11/29 10:25:28;;;;;;;18.58;14.52;;;6.00;94.60;;;;;;5028975;28;20021;-55
2022/11/29 10:27:55;;;;;;;19.13;14.85;;;5.90;94.50;;;;;;5015808;28;20033;-57
2022/11/29 10:30:24;;;;;;;18.42;14.13;;;6.00;94.50;;;;;;5032903;28;20037;-52
2022/11/29 10:32:56;;;;;;;20.98;13.85;;;6.00;94.50;;;;;;5028999;28;20071;-55
2022/11/29 10:35:24;;;;;;;18.73;13.93;;;6.00;94.50;;;;;;5011712;28;20053;-56
2022/11/29 10:37:54;;;;;;;18.50;14.68;;;5.90;94.40;;;;;;5025723;28;20045;-56
2022/11/29 10:40:31;;;;;;;19.08;14.27;;;5.90;94.40;;;;;;4995916;28;20088;-56
2022/11/29 10:42:58;;;;;;;21.58;15.55;;;5.90;94.40;;;;;;5032073;28;20084;-56
2022/11/29 10:45:29;;;;;;;19.90;14.82;;;5.90;94.40;;;;;;5033179;28;20025;-56
2022/11/29 10:48:02;;;;;;;19.92;14.52;;;6.00;94.40;;;;;;5012160;28;20028;-56
2022/11/29 10:50:32;;;;;;;19.13;15.18;;;6.00;94.30;;;;;;5033088;28;20049;-56
2022/11/29 10:53:24;;;;;;;19.02;14.18;;;6.00;94.40;;;;;;5015261;28;20029;-57
2022/11/29 10:56:23;;;;;;;18.85;13.63;;;6.00;94.40;;;;;;5031829;28;20478;-53
2022/11/29 10:58:57;;;;;;;16.92;13.15;;;5.90;94.50;;;;;;5011071;28;20351;-56
2022/11/29 11:01:25;;;;;;;18.23;13.52;;;6.00;94.40;;;;;;5032853;28;20505;-54
2022/11/29 11:03:57;;;;;;;18.45;13.00;;;6.00;94.50;;;;;;5032970;28;20100;-57
2022/11/29 11:06:52;;;;;;;18.33;13.55;;;6.00;94.40;;;;;;5032890;28;20095;-57
2022/11/29 11:09:46;;;;;;;18.73;13.25;;;6.00;94.40;;;;;;5030195;28;20044;-57
2022/11/29 11:12:31;;;;;;;17.33;13.05;;;6.00;94.40;;;;;;5045533;28;20458;-57
2022/11/29 11:15:30;;;;;;;15.40;13.05;;;6.10;94.50;;;;;;5031929;28;20025;-57
2022/11/29 11:18:06;;;;;;;19.25;14.05;;;6.10;94.60;;;;;;5032696;28;20079;-55
2022/11/29 11:20:40;;;;;;;18.35;14.55;;;6.20;94.50;;;;;;5041685;28;20025;-55
2022/11/29 11:23:25;;;;;;;16.50;13.30;;;6.20;94.50;;;;;;5051622;28;20443;-58
2022/11/29 11:25:59;;;;;;;16.70;13.57;;;6.30;94.50;;;;;;5047342;28;20029;-58
2022/11/29 11:28:30;;;;;;;18.80;14.20;;;6.30;94.40;;;;;;5032760;28;20400;-57
2022/11/29 11:31:11;;;;;;;17.60;13.48;;;6.30;94.40;;;;;;5032756;28;20026;-58
2022/11/29 11:33:38;;;;;;;18.23;14.27;;;6.20;94.40;;;;;;5052403;28;20056;-57
2022/11/29 11:36:26;;;;;;;17.90;13.52;;;6.30;94.40;;;;;;5019670;28;20115;-57
2022/11/29 11:39:17;;;;;;;15.80;12.93;;;6.30;94.40;;;;;;5030493;28;20374;-56
2022/11/29 11:44:51;;;;;;;17.20;14.45;;;6.20;94.30;;;;;;5028866;28;20063;-54
2022/11/29 11:47:38;;;;;;;18.58;15.50;;;6.10;94.30;;;;;;5021398;28;20036;-55
2022/11/29 11:50:41;;;;;;;17.42;14.10;;;6.10;94.30;;;;;;5017549;28;20057;-56
2022/11/29 11:53:28;;;;;;;17.75;13.32;;;6.20;94.40;;;;;;5013087;28;20026;-57
2022/11/29 11:56:02;;;;;;;21.65;15.07;;;6.20;94.40;;;;;;5032155;28;20026;-57
2022/11/29 11:58:53;;;;;;;18.83;14.10;;;6.10;94.40;;;;;;5006099;28;20030;-57
2022/11/29 12:01:37;;;;;;;18.05;13.45;;;6.20;94.50;;;;;;5034191;28;20032;-57
2022/11/29 12:04:32;;;;;;;17.40;14.32;;;6.20;94.40;;;;;;5023960;28;20021;-55
2022/11/29 12:07:24;;;;;;;18.33;14.30;;;6.20;94.50;;;;;;5009445;28;20489;-56
2022/11/29 12:10:06;;;;;;;18.00;14.57;;;6.30;94.50;;;;;;5018970;28;20370;-55
2022/11/29 12:12:50;;;;;;;17.10;12.85;;;6.30;94.50;;;;;;5030057;28;20030;-54
2022/11/29 12:15:28;;;;;;;16.45;13.18;;;6.30;94.50;;;;;;5018491;28;20061;-54
2022/11/29 12:18:11;;;;;;;18.92;14.27;;;6.30;94.50;;;;;;5016463;28;20371;-55
2022/11/29 12:21:04;;;;;;;19.10;14.82;;;6.30;94.40;;;;;;5018059;28;20502;-56
2022/11/29 12:23:55;;;;;;;18.77;14.25;;;6.30;94.40;;;;;;5021603;28;20095;-56
2022/11/29 12:26:25;;;;;;;17.30;14.15;;;6.20;94.30;;;;;;5013879;28;20041;-54
2022/11/29 12:28:52;;;;;;;18.48;14.98;;;6.30;94.40;;;;;;5015886;28;20109;-54
2022/11/29 12:31:45;;;;;;;17.85;14.10;;;6.20;94.40;;;;;;5015612;28;20042;-51
2022/11/29 12:34:48;;;;;;;18.63;14.90;;;6.30;94.40;;;;;;5014932;28;20083;-50
2022/11/29 12:37:45;;;;;;;19.48;14.10;;;6.30;94.40;;;;;;5029588;28;20309;-54
2022/11/29 12:40:22;;;;;;;19.38;14.65;;;6.30;94.40;;;;;;5029725;28;20033;-54
2022/11/29 12:43:18;;;;;;;18.77;15.68;;;6.30;94.50;;;;;;5033845;28;20083;-54
2022/11/29 12:46:10;;;;;;;19.98;14.63;;;6.40;94.50;;;;;;5030141;28;20022;-53
2022/11/29 12:49:07;;;;;;;20.92;15.30;;;6.30;94.50;;;;;;5029475;28;20029;-56
2022/11/29 12:52:03;;;;;;;17.70;13.88;;;6.30;94.50;;;;;;5024941;28;20022;-52
2022/11/29 12:54:59;;;;;;;18.15;13.93;;;6.40;94.50;;;;;;5035223;28;20025;-55
2022/11/29 12:58:04;;;;;;;21.38;16.70;;;6.30;94.50;;;;;;5033498;28;20053;-54
2022/11/29 13:00:41;;;;;;;21.83;17.80;;;6.30;94.40;;;;;;5029581;28;20041;-52
2022/11/29 13:03:25;;;;;;;22.27;16.98;;;6.30;94.50;;;;;;5014177;28;20030;-54
2022/11/29 13:06:29;;;;;;;23.52;19.10;;;6.30;94.50;;;;;;5014743;28;20026;-55
2022/11/29 13:09:28;;;;;;;21.63;16.88;;;6.30;94.50;;;;;;5034372;28;20120;-53
2022/11/29 13:12:18;;;;;;;20.80;16.50;;;6.30;94.50;;;;;;5044071;28;20467;-50
2022/11/29 13:14:55;;;;;;;21.08;16.30;;;6.30;94.40;;;;;;5015114;28;20326;-53
2022/11/29 13:17:28;;;;;;;19.85;16.85;;;6.20;94.50;;;;;;5021937;28;20061;-49
2022/11/29 13:20:19;;;;;;;23.38;17.33;;;6.20;94.50;;;;;;5020371;28;20029;-53
2022/11/29 13:23:04;;;;;;;20.83;16.58;;;6.30;94.50;;;;;;5015968;28;20103;-53
2022/11/29 13:25:40;;;;;;;23.08;17.30;;;6.30;94.60;;;;;;5026970;28;20099;-56
2022/11/29 13:28:16;;;;;;;20.23;15.88;;;6.30;94.50;;;;;;5026820;28;20706;-52
2022/11/29 13:30:43;;;;;;;21.70;16.00;;;6.30;94.60;;;;;;5014514;28;20072;-57
2022/11/29 13:33:27;;;;;;;20.95;15.65;;;6.20;94.50;;;;;;5017297;28;20109;-58
2022/11/29 13:36:11;;;;;;;21.95;16.42;;;6.30;94.60;;;;;;5041507;28;20603;-57
2022/11/29 13:38:37;;;;;;;21.48;15.80;;;6.30;94.50;;;;;;5051020;28;20033;-57
2022/11/29 13:41:48;;;;;;;22.13;16.30;;;6.30;94.60;;;;;;5036612;28;20029;-58
2022/11/29 13:44:26;;;;;;;22.52;16.65;;;6.30;94.60;;;;;;5046391;28;20458;-59
2022/11/29 13:47:10;;;;;;;21.33;16.58;;;6.30;94.60;;;;;;5034175;28;20043;-59
2022/11/29 13:49:56;;;;;;;24.65;18.02;;;6.30;94.60;;;;;;5034183;28;20520;-58
2022/11/29 13:52:25;;;;;;;30.83;21.80;;;6.30;94.60;;;;;;5034471;28;20043;-57
2022/11/29 13:55:22;;;;;;;26.55;19.90;;;6.30;94.60;;;;;;5052397;28;20037;-59
2022/11/29 13:57:53;;;;;;;26.52;19.08;;;6.20;94.50;;;;;;5053291;28;20094;-56
2022/11/29 14:00:40;;;;;;;24.38;18.80;;;6.20;94.60;;;;;;5044507;28;20025;-58
2022/11/29 14:03:28;;;;;;;22.70;17.75;;;6.20;94.50;;;;;;5033853;28;20030;-57
2022/11/29 14:06:20;;;;;;;23.00;18.33;;;6.20;94.50;;;;;;5040174;28;20075;-58